Kwajalein/Bucholz, Marshall Islands
Current Conditions -  °F | °C
As of 6:00 PM on Tuesday 21 Oct 2014 (Local Time) from PKWA Reporting Station
Scattered Clouds Scattered Clouds  
Wind Chill: 84°   Ceiling: Unl
Heat Index: 93°   Visibility: 10mi
Dew Point: 76°   Wind: 13mph
Humidity: 76%   Direction: 170°S
Pressure: 29.78"   Gusts: NA
Location:  8.73°N, 167.73°E
Report Text: PKWA 210600Z AUTO 17011KT 10SM SCT019 29/25 A2978 RMK AO2 T02910245
Loading
Personal Weather Stations






























Interactive Weather Map
Tropical Storm Tracking
New forecast layout! Learn more

10-Day Weather Forecast

Advertisements
Track Severe Weather on mobile